sensor_id;sensor_type;location;lat;lon;timestamp;pressure;altitude;pressure_sealevel;temperature;humidity
33845;BME280;20145;43.118;25.694;2023-01-28T00:01:11;99064.06;;;0.45;100.00
33845;BME280;20145;43.118;25.694;2023-01-28T00:03:37;99061.66;;;0.51;100.00
33845;BME280;20145;43.118;25.694;2023-01-28T00:06:07;99058.22;;;0.48;100.00
33845;BME280;20145;43.118;25.694;2023-01-28T00:08:32;99061.78;;;0.56;100.00
33845;BME280;20145;43.118;25.694;2023-01-28T00:10:59;99071.06;;;0.55;100.00
33845;BME280;20145;43.118;25.694;2023-01-28T00:13:25;99058.47;;;0.58;100.00
33845;BME280;20145;43.118;25.694;2023-01-28T00:15:57;99065.13;;;0.55;100.00
33845;BME280;20145;43.118;25.694;2023-01-28T00:18:27;99048.94;;;0.50;100.00
33845;BME280;20145;43.118;25.694;2023-01-28T00:21:00;99074.16;;;0.42;100.00
33845;BME280;20145;43.118;25.694;2023-01-28T00:23:27;99078.59;;;0.52;100.00
33845;BME280;20145;43.118;25.694;2023-01-28T00:25:53;99078.66;;;0.55;100.00
33845;BME280;20145;43.118;25.694;2023-01-28T00:28:22;99081.19;;;0.54;100.00
33845;BME280;20145;43.118;25.694;2023-01-28T00:30:47;99086.94;;;0.47;100.00
33845;BME280;20145;43.118;25.694;2023-01-28T00:33:13;99087.19;;;0.57;100.00
33845;BME280;20145;43.118;25.694;2023-01-28T00:35:38;99080.47;;;0.59;100.00
33845;BME280;20145;43.118;25.694;2023-01-28T00:38:05;99088.16;;;0.62;100.00
33845;BME280;20145;43.118;25.694;2023-01-28T00:40:31;99088.97;;;0.61;100.00
33845;BME280;20145;43.118;25.694;2023-01-28T00:42:57;99089.78;;;0.60;100.00
33845;BME280;20145;43.118;25.694;2023-01-28T00:45:22;99088.19;;;0.64;100.00
33845;BME280;20145;43.118;25.694;2023-01-28T00:47:48;99095.09;;;0.70;100.00
33845;BME280;20145;43.118;25.694;2023-01-28T00:50:13;99086.56;;;0.68;100.00
33845;BME280;20145;43.118;25.694;2023-01-28T00:52:40;99088.38;;;0.73;100.00
33845;BME280;20145;43.118;25.694;2023-01-28T00:55:06;99104.72;;;0.84;100.00
33845;BME280;20145;43.118;25.694;2023-01-28T00:57:32;99096.25;;;0.84;100.00
33845;BME280;20145;43.118;25.694;2023-01-28T00:59:58;99105.25;;;0.71;100.00
33845;BME280;20145;43.118;25.694;2023-01-28T01:02:25;99096.66;;;0.64;100.00
33845;BME280;20145;43.118;25.694;2023-01-28T01:04:51;99108.19;;;0.50;100.00
33845;BME280;20145;43.118;25.694;2023-01-28T01:07:24;99110.88;;;0.58;100.00
33845;BME280;20145;43.118;25.694;2023-01-28T01:10:16;99119.22;;;0.52;100.00
33845;BME280;20145;43.118;25.694;2023-01-28T01:12:42;99112.28;;;0.45;100.00
33845;BME280;20145;43.118;25.694;2023-01-28T01:15:08;99109.75;;;0.45;100.00
33845;BME280;20145;43.118;25.694;2023-01-28T01:17:41;99115.00;;;0.53;100.00
33845;BME280;20145;43.118;25.694;2023-01-28T01:20:12;99108.97;;;0.48;100.00
33845;BME280;20145;43.118;25.694;2023-01-28T01:22:38;99112.34;;;0.48;100.00
33845;BME280;20145;43.118;25.694;2023-01-28T01:25:04;99113.09;;;0.44;100.00
33845;BME280;20145;43.118;25.694;2023-01-28T01:27:31;99111.53;;;0.49;100.00
33845;BME280;20145;43.118;25.694;2023-01-28T01:29:56;99103.97;;;0.52;100.00
33845;BME280;20145;43.118;25.694;2023-01-28T01:32:24;99106.50;;;0.51;100.00
33845;BME280;20145;43.118;25.694;2023-01-28T01:34:50;99108.84;;;0.43;100.00
33845;BME280;20145;43.118;25.694;2023-01-28T01:37:15;99102.16;;;0.47;100.00
33845;BME280;20145;43.118;25.694;2023-01-28T01:39:41;99094.53;;;0.47;100.00
33845;BME280;20145;43.118;25.694;2023-01-28T01:42:11;99104.03;;;0.54;100.00
33845;BME280;20145;43.118;25.694;2023-01-28T01:44:57;99106.16;;;0.73;100.00
33845;BME280;20145;43.118;25.694;2023-01-28T01:50:15;99116.34;;;0.75;100.00
33845;BME280;20145;43.118;25.694;2023-01-28T01:52:43;99113.78;;;0.73;100.00
33845;BME280;20145;43.118;25.694;2023-01-28T01:55:13;99106.13;;;0.72;100.00
33845;BME280;20145;43.118;25.694;2023-01-28T01:57:41;99106.84;;;0.66;100.00
33845;BME280;20145;43.118;25.694;2023-01-28T02:00:08;99117.69;;;0.60;100.00
33845;BME280;20145;43.118;25.694;2023-01-28T02:02:41;99108.41;;;0.61;100.00
33845;BME280;20145;43.118;25.694;2023-01-28T02:05:09;99120.22;;;0.59;100.00
33845;BME280;20145;43.118;25.694;2023-01-28T02:07:36;99121.06;;;0.59;100.00
33845;BME280;20145;43.118;25.694;2023-01-28T02:10:02;99120.44;;;0.68;100.00
33845;BME280;20145;43.118;25.694;2023-01-28T02:12:32;99126.34;;;0.67;100.00
33845;BME280;20145;43.118;25.694;2023-01-28T02:15:09;99118.81;;;0.72;100.00
33845;BME280;20145;43.118;25.694;2023-01-28T02:17:37;99123.09;;;0.74;100.00
33845;BME280;20145;43.118;25.694;2023-01-28T02:20:11;99130.69;;;0.73;100.00
33845;BME280;20145;43.118;25.694;2023-01-28T02:30:43;99149.66;;;0.88;100.00
33845;BME280;20145;43.118;25.694;2023-01-28T02:33:48;99147.94;;;0.86;100.00
33845;BME280;20145;43.118;25.694;2023-01-28T02:38:55;99150.25;;;0.77;100.00
33845;BME280;20145;43.118;25.694;2023-01-28T02:41:28;99144.75;;;0.58;100.00
33845;BME280;20145;43.118;25.694;2023-01-28T02:43:56;99146.59;;;0.65;100.00
33845;BME280;20145;43.118;25.694;2023-01-28T02:49:16;99152.03;;;0.81;100.00
33845;BME280;20145;43.118;25.694;2023-01-28T02:54:35;99163.69;;;0.73;100.00
33845;BME280;20145;43.118;25.694;2023-01-28T02:57:18;99159.78;;;0.87;100.00
33845;BME280;20145;43.118;25.694;2023-01-28T03:00:04;99161.44;;;0.85;100.00
33845;BME280;20145;43.118;25.694;2023-01-28T03:07:34;99169.09;;;0.86;100.00
33845;BME280;20145;43.118;25.694;2023-01-28T03:10:04;99170.06;;;0.92;100.00
33845;BME280;20145;43.118;25.694;2023-01-28T03:12:33;99171.72;;;0.91;100.00
33845;BME280;20145;43.118;25.694;2023-01-28T03:23:56;99167.53;;;0.92;100.00
33845;BME280;20145;43.118;25.694;2023-01-28T03:27:18;99172.47;;;0.87;100.00
33845;BME280;20145;43.118;25.694;2023-01-28T03:30:21;99176.41;;;0.74;100.00
33845;BME280;20145;43.118;25.694;2023-01-28T03:33:07;99168.53;;;0.63;100.00
33845;BME280;20145;43.118;25.694;2023-01-28T03:35:52;99185.44;;;0.61;100.00
33845;BME280;20145;43.118;25.694;2023-01-28T03:38:39;99168.91;;;0.42;100.00
33845;BME280;20145;43.118;25.694;2023-01-28T03:41:22;99175.81;;;0.48;100.00
33845;BME280;20145;43.118;25.694;2023-01-28T03:43:49;99174.03;;;0.46;100.00
33845;BME280;20145;43.118;25.694;2023-01-28T03:46:15;99181.81;;;0.52;100.00
33845;BME280;20145;43.118;25.694;2023-01-28T03:48:41;99177.81;;;0.61;100.00
33845;BME280;20145;43.118;25.694;2023-01-28T03:51:07;99191.56;;;0.71;100.00
33845;BME280;20145;43.118;25.694;2023-01-28T03:53:32;99185.69;;;0.72;100.00
33845;BME280;20145;43.118;25.694;2023-01-28T03:55:58;99187.28;;;0.69;100.00
33845;BME280;20145;43.118;25.694;2023-01-28T03:58:24;99192.50;;;0.75;100.00
33845;BME280;20145;43.118;25.694;2023-01-28T04:01:11;99193.38;;;0.75;100.00
33845;BME280;20145;43.118;25.694;2023-01-28T04:03:37;99190.97;;;0.81;100.00
33845;BME280;20145;43.118;25.694;2023-01-28T04:06:06;99197.56;;;0.75;100.00
33845;BME280;20145;43.118;25.694;2023-01-28T04:08:32;99200.09;;;0.73;100.00
33845;BME280;20145;43.118;25.694;2023-01-28T04:10:58;99184.59;;;0.62;100.00
33845;BME280;20145;43.118;25.694;2023-01-28T04:13:43;99199.13;;;0.68;100.00
33845;BME280;20145;43.118;25.694;2023-01-28T04:16:09;99201.41;;;0.57;100.00
33845;BME280;20145;43.118;25.694;2023-01-28T04:18:35;99197.41;;;0.67;100.00
33845;BME280;20145;43.118;25.694;2023-01-28T04:21:00;99210.19;;;0.72;100.00
33845;BME280;20145;43.118;25.694;2023-01-28T04:23:26;99210.19;;;0.70;100.00
33845;BME280;20145;43.118;25.694;2023-01-28T04:25:54;99212.78;;;0.73;100.00
33845;BME280;20145;43.118;25.694;2023-01-28T04:28:19;99210.13;;;0.69;100.00
33845;BME280;20145;43.118;25.694;2023-01-28T04:30:45;99212.78;;;0.73;100.00
33845;BME280;20145;43.118;25.694;2023-01-28T04:33:10;99195.72;;;0.68;100.00
33845;BME280;20145;43.118;25.694;2023-01-28T04:35:36;99209.66;;;0.83;100.00
33845;BME280;20145;43.118;25.694;2023-01-28T04:38:01;99216.56;;;0.89;100.00
33845;BME280;20145;43.118;25.694;2023-01-28T04:40:27;99221.66;;;0.91;100.00
33845;BME280;20145;43.118;25.694;2023-01-28T04:42:54;99232.13;;;1.03;100.00
33845;BME280;20145;43.118;25.694;2023-01-28T04:45:20;99237.34;;;1.09;100.00
33845;BME280;20145;43.118;25.694;2023-01-28T04:47:45;99235.75;;;1.14;100.00
33845;BME280;20145;43.118;25.694;2023-01-28T04:50:11;99238.38;;;1.17;100.00
33845;BME280;20145;43.118;25.694;2023-01-28T04:52:36;99241.63;;;1.13;100.00
33845;BME280;20145;43.118;25.694;2023-01-28T04:55:02;99242.34;;;1.07;100.00
33845;BME280;20145;43.118;25.694;2023-01-28T04:57:28;99247.41;;;1.06;100.00
33845;BME280;20145;43.118;25.694;2023-01-28T04:59:53;99260.19;;;1.09;100.00
33845;BME280;20145;43.118;25.694;2023-01-28T05:02:19;99257.31;;;0.95;100.00
33845;BME280;20145;43.118;25.694;2023-01-28T05:04:45;99261.50;;;0.93;100.00
33845;BME280;20145;43.118;25.694;2023-01-28T05:07:10;99258.97;;;0.93;100.00
33845;BME280;20145;43.118;25.694;2023-01-28T05:09:36;99261.56;;;0.96;100.00
33845;BME280;20145;43.118;25.694;2023-01-28T05:12:02;99266.66;;;0.96;100.00
33845;BME280;20145;43.118;25.694;2023-01-28T05:14:27;99265.88;;;0.99;100.00
33845;BME280;20145;43.118;25.694;2023-01-28T05:16:53;99265.69;;;0.91;100.00
33845;BME280;20145;43.118;25.694;2023-01-28T05:19:19;99273.50;;;0.99;100.00
33845;BME280;20145;43.118;25.694;2023-01-28T05:21:44;99270.03;;;0.97;100.00
33845;BME280;20145;43.118;25.694;2023-01-28T05:24:10;99276.28;;;1.09;100.00
33845;BME280;20145;43.118;25.694;2023-01-28T05:26:35;99274.59;;;1.10;100.00
33845;BME280;20145;43.118;25.694;2023-01-28T05:29:02;99282.13;;;1.05;100.00
33845;BME280;20145;43.118;25.694;2023-01-28T05:31:27;99291.59;;;1.13;100.00
33845;BME280;20145;43.118;25.694;2023-01-28T05:33:53;99290.94;;;1.21;100.00
33845;BME280;20145;43.118;25.694;2023-01-28T05:36:19;99297.38;;;1.05;99.84
33845;BME280;20145;43.118;25.694;2023-01-28T05:38:44;99289.03;;;1.11;100.00
33845;BME280;20145;43.118;25.694;2023-01-28T05:41:10;99294.72;;;1.02;100.00
33845;BME280;20145;43.118;25.694;2023-01-28T05:43:35;99299.41;;;0.85;100.00
33845;BME280;20145;43.118;25.694;2023-01-28T05:46:01;99302.91;;;0.89;100.00
33845;BME280;20145;43.118;25.694;2023-01-28T05:48:27;99306.03;;;0.80;100.00
33845;BME280;20145;43.118;25.694;2023-01-28T05:50:52;99311.03;;;0.76;100.00
33845;BME280;20145;43.118;25.694;2023-01-28T05:53:18;99310.97;;;0.74;100.00
33845;BME280;20145;43.118;25.694;2023-01-28T05:55:47;99307.81;;;0.83;100.00
33845;BME280;20145;43.118;25.694;2023-01-28T05:58:13;99316.66;;;0.65;100.00
33845;BME280;20145;43.118;25.694;2023-01-28T06:00:39;99320.34;;;0.77;100.00
33845;BME280;20145;43.118;25.694;2023-01-28T06:03:04;99313.47;;;0.73;100.00
33845;BME280;20145;43.118;25.694;2023-01-28T06:05:30;99324.66;;;0.79;100.00
33845;BME280;20145;43.118;25.694;2023-01-28T06:07:55;99323.72;;;0.76;100.00
33845;BME280;20145;43.118;25.694;2023-01-28T06:10:21;99322.81;;;0.74;100.00
33845;BME280;20145;43.118;25.694;2023-01-28T06:12:46;99325.16;;;0.66;100.00
33845;BME280;20145;43.118;25.694;2023-01-28T06:15:12;99336.13;;;0.65;100.00
33845;BME280;20145;43.118;25.694;2023-01-28T06:17:38;99337.84;;;0.66;100.00
33845;BME280;20145;43.118;25.694;2023-01-28T06:20:04;99342.91;;;0.66;100.00
33845;BME280;20145;43.118;25.694;2023-01-28T06:22:29;99348.91;;;0.68;100.00
33845;BME280;20145;43.118;25.694;2023-01-28T06:24:55;99349.38;;;0.55;100.00
33845;BME280;20145;43.118;25.694;2023-01-28T06:27:20;99357.22;;;0.62;100.00
33845;BME280;20145;43.118;25.694;2023-01-28T06:29:46;99361.81;;;0.76;100.00
33845;BME280;20145;43.118;25.694;2023-01-28T06:32:11;99364.44;;;0.80;100.00
33845;BME280;20145;43.118;25.694;2023-01-28T06:34:37;99371.19;;;0.78;100.00
33845;BME280;20145;43.118;25.694;2023-01-28T06:37:03;99367.25;;;0.89;100.00
33845;BME280;20145;43.118;25.694;2023-01-28T06:39:29;99361.09;;;0.81;100.00
33845;BME280;20145;43.118;25.694;2023-01-28T06:41:58;99374.56;;;0.79;100.00
33845;BME280;20145;43.118;25.694;2023-01-28T06:44:24;99379.69;;;0.80;100.00
33845;BME280;20145;43.118;25.694;2023-01-28T06:46:50;99387.19;;;0.76;100.00
33845;BME280;20145;43.118;25.694;2023-01-28T06:49:16;99384.50;;;0.70;100.00
33845;BME280;20145;43.118;25.694;2023-01-28T06:51:41;99385.19;;;0.64;100.00
33845;BME280;20145;43.118;25.694;2023-01-28T06:54:07;99395.34;;;0.64;100.00
33845;BME280;20145;43.118;25.694;2023-01-28T06:56:32;99392.66;;;0.59;100.00
33845;BME280;20145;43.118;25.694;2023-01-28T06:58:58;99394.75;;;0.74;100.00
33845;BME280;20145;43.118;25.694;2023-01-28T07:01:24;99391.50;;;0.78;100.00
33845;BME280;20145;43.118;25.694;2023-01-28T07:03:49;99397.56;;;0.83;100.00
33845;BME280;20145;43.118;25.694;2023-01-28T07:06:16;99394.41;;;0.94;100.00
33845;BME280;20145;43.118;25.694;2023-01-28T07:08:42;99398.16;;;1.06;100.00
33845;BME280;20145;43.118;25.694;2023-01-28T07:11:07;99409.00;;;1.01;100.00
33845;BME280;20145;43.118;25.694;2023-01-28T07:13:33;99409.03;;;1.02;100.00
33845;BME280;20145;43.118;25.694;2023-01-28T07:15:59;99407.38;;;1.03;100.00
33845;BME280;20145;43.118;25.694;2023-01-28T07:18:25;99406.59;;;1.05;99.62
33845;BME280;20145;43.118;25.694;2023-01-28T07:20:50;99406.47;;;1.01;99.86
33845;BME280;20145;43.118;25.694;2023-01-28T07:23:16;99410.38;;;1.21;100.00
33845;BME280;20145;43.118;25.694;2023-01-28T07:25:41;99408.97;;;1.32;99.30
33845;BME280;20145;43.118;25.694;2023-01-28T07:28:07;99409.22;;;1.42;98.82
33845;BME280;20145;43.118;25.694;2023-01-28T07:30:33;99404.38;;;1.52;97.38
33845;BME280;20145;43.118;25.694;2023-01-28T07:32:59;99408.09;;;1.67;97.89
33845;BME280;20145;43.118;25.694;2023-01-28T07:35:25;99414.00;;;1.66;96.12
33845;BME280;20145;43.118;25.694;2023-01-28T07:37:53;99405.78;;;1.76;95.38
33845;BME280;20145;43.118;25.694;2023-01-28T07:40:19;99404.09;;;1.76;95.37
33845;BME280;20145;43.118;25.694;2023-01-28T07:42:45;99418.53;;;1.77;95.29
33845;BME280;20145;43.118;25.694;2023-01-28T07:45:11;99420.19;;;1.77;94.22
33845;BME280;20145;43.118;25.694;2023-01-28T07:47:36;99428.41;;;1.65;95.37
33845;BME280;20145;43.118;25.694;2023-01-28T07:50:02;99414.84;;;1.65;95.16
33845;BME280;20145;43.118;25.694;2023-01-28T07:52:27;99422.81;;;1.80;94.61
33845;BME280;20145;43.118;25.694;2023-01-28T07:54:53;99418.00;;;1.92;94.50
33845;BME280;20145;43.118;25.694;2023-01-28T07:57:19;99422.41;;;1.99;94.17
33845;BME280;20145;43.118;25.694;2023-01-28T07:59:48;99427.88;;;2.16;93.47
33845;BME280;20145;43.118;25.694;2023-01-28T08:02:15;99424.75;;;2.28;92.87
33845;BME280;20145;43.118;25.694;2023-01-28T08:04:41;99421.19;;;2.21;92.42
33845;BME280;20145;43.118;25.694;2023-01-28T08:07:07;99409.59;;;1.95;93.22
33845;BME280;20145;43.118;25.694;2023-01-28T08:09:33;99405.56;;;2.05;92.27
33845;BME280;20145;43.118;25.694;2023-01-28T08:12:00;99413.34;;;2.11;91.48
33845;BME280;20145;43.118;25.694;2023-01-28T08:14:26;99421.47;;;2.35;90.95
33845;BME280;20145;43.118;25.694;2023-01-28T08:16:52;99421.63;;;2.41;90.26
33845;BME280;20145;43.118;25.694;2023-01-28T08:19:17;99422.56;;;2.46;88.37
33845;BME280;20145;43.118;25.694;2023-01-28T08:21:46;99431.09;;;2.47;86.83
33845;BME280;20145;43.118;25.694;2023-01-28T08:24:12;99418.84;;;2.72;87.94
33845;BME280;20145;43.118;25.694;2023-01-28T08:26:37;99424.84;;;2.75;86.10
33845;BME280;20145;43.118;25.694;2023-01-28T08:29:03;99429.38;;;2.90;86.07
33845;BME280;20145;43.118;25.694;2023-01-28T08:31:29;99430.53;;;3.07;85.77
33845;BME280;20145;43.118;25.694;2023-01-28T08:33:55;99417.13;;;3.18;84.98
33845;BME280;20145;43.118;25.694;2023-01-28T08:36:20;99432.72;;;3.34;84.58
33845;BME280;20145;43.118;25.694;2023-01-28T08:38:46;99421.75;;;3.39;85.01
33845;BME280;20145;43.118;25.694;2023-01-28T08:41:11;99425.34;;;3.51;84.15
33845;BME280;20145;43.118;25.694;2023-01-28T08:43:37;99416.91;;;3.54;83.53
33845;BME280;20145;43.118;25.694;2023-01-28T08:46:05;99414.06;;;3.37;82.80
33845;BME280;20145;43.118;25.694;2023-01-28T08:48:31;99419.28;;;3.43;83.55
33845;BME280;20145;43.118;25.694;2023-01-28T08:50:59;99421.19;;;3.55;82.85
33845;BME280;20145;43.118;25.694;2023-01-28T08:53:25;99412.38;;;3.38;81.03
33845;BME280;20145;43.118;25.694;2023-01-28T08:55:50;99422.97;;;3.12;83.18
33845;BME280;20145;43.118;25.694;2023-01-28T08:58:17;99418.94;;;3.23;82.60
33845;BME280;20145;43.118;25.694;2023-01-28T09:00:44;99418.41;;;3.43;82.82
33845;BME280;20145;43.118;25.694;2023-01-28T09:03:09;99422.56;;;3.36;82.70
33845;BME280;20145;43.118;25.694;2023-01-28T09:05:36;99406.56;;;3.45;82.54
33845;BME280;20145;43.118;25.694;2023-01-28T09:08:09;99426.44;;;3.64;82.84
33845;BME280;20145;43.118;25.694;2023-01-28T09:10:35;99421.63;;;3.31;82.73
33845;BME280;20145;43.118;25.694;2023-01-28T09:13:11;99416.78;;;2.98;84.60
33845;BME280;20145;43.118;25.694;2023-01-28T09:15:37;99419.75;;;3.21;84.06
33845;BME280;20145;43.118;25.694;2023-01-28T09:18:03;99416.34;;;3.20;84.01
33845;BME280;20145;43.118;25.694;2023-01-28T09:20:29;99419.03;;;3.28;84.68
33845;BME280;20145;43.118;25.694;2023-01-28T09:22:57;99423.19;;;3.23;84.72
33845;BME280;20145;43.118;25.694;2023-01-28T09:25:22;99414.88;;;3.34;84.10
33845;BME280;20145;43.118;25.694;2023-01-28T09:27:48;99418.44;;;3.44;84.02
33845;BME280;20145;43.118;25.694;2023-01-28T09:30:14;99407.09;;;3.27;84.87
33845;BME280;20145;43.118;25.694;2023-01-28T09:32:39;99394.34;;;3.27;84.68
33845;BME280;20145;43.118;25.694;2023-01-28T09:35:05;99409.81;;;3.36;84.89
33845;BME280;20145;43.118;25.694;2023-01-28T09:37:31;99412.63;;;3.53;84.03
33845;BME280;20145;43.118;25.694;2023-01-28T09:39:56;99416.13;;;3.60;84.34
33845;BME280;20145;43.118;25.694;2023-01-28T09:47:45;99413.94;;;3.81;83.81
33845;BME280;20145;43.118;25.694;2023-01-28T09:52:47;99398.44;;;3.70;82.35
33845;BME280;20145;43.118;25.694;2023-01-28T09:55:36;99424.22;;;3.86;83.07
33845;BME280;20145;43.118;25.694;2023-01-28T09:58:10;99425.63;;;3.67;84.04
33845;BME280;20145;43.118;25.694;2023-01-28T10:00:44;99407.97;;;3.29;84.28
33845;BME280;20145;43.118;25.694;2023-01-28T10:03:20;99427.09;;;3.54;84.32
33845;BME280;20145;43.118;25.694;2023-01-28T10:14:27;99429.50;;;3.46;85.27
33845;BME280;20145;43.118;25.694;2023-01-28T10:17:13;99428.59;;;3.41;86.46
33845;BME280;20145;43.118;25.694;2023-01-28T10:22:42;99427.19;;;3.08;87.94
33845;BME280;20145;43.118;25.694;2023-01-28T10:25:18;99418.94;;;3.23;87.99
33845;BME280;20145;43.118;25.694;2023-01-28T10:27:46;99424.03;;;3.22;87.09
33845;BME280;20145;43.118;25.694;2023-01-28T10:30:27;99422.13;;;3.13;87.68
33845;BME280;20145;43.118;25.694;2023-01-28T10:35:34;99433.03;;;3.03;87.45
33845;BME280;20145;43.118;25.694;2023-01-28T10:38:04;99422.41;;;2.81;87.68
33845;BME280;20145;43.118;25.694;2023-01-28T10:40:32;99436.31;;;2.55;89.48
33845;BME280;20145;43.118;25.694;2023-01-28T10:42:57;99432.41;;;2.71;89.88
33845;BME280;20145;43.118;25.694;2023-01-28T10:45:27;99432.56;;;2.78;89.33
33845;BME280;20145;43.118;25.694;2023-01-28T10:50:26;99431.59;;;2.72;87.94
33845;BME280;20145;43.118;25.694;2023-01-28T10:52:59;99442.94;;;2.89;88.86
33845;BME280;20145;43.118;25.694;2023-01-28T10:55:28;99434.53;;;2.93;88.28
33845;BME280;20145;43.118;25.694;2023-01-28T10:57:55;99438.72;;;2.89;88.26
33845;BME280;20145;43.118;25.694;2023-01-28T11:00:23;99434.63;;;2.98;88.49
33845;BME280;20145;43.118;25.694;2023-01-28T11:02:50;99434.56;;;2.95;87.89
33845;BME280;20145;43.118;25.694;2023-01-28T11:05:32;99437.00;;;2.88;87.85
33845;BME280;20145;43.118;25.694;2023-01-28T11:10:30;99433.22;;;2.70;89.08
33845;BME280;20145;43.118;25.694;2023-01-28T11:13:00;99430.91;;;2.82;89.91
33845;BME280;20145;43.118;25.694;2023-01-28T11:15:26;99440.06;;;2.72;89.59
33845;BME280;20145;43.118;25.694;2023-01-28T11:18:01;99433.13;;;2.63;90.05
33845;BME280;20145;43.118;25.694;2023-01-28T11:20:30;99435.31;;;2.89;89.83
33845;BME280;20145;43.118;25.694;2023-01-28T11:23:00;99428.94;;;3.11;89.82
33845;BME280;20145;43.118;25.694;2023-01-28T11:25:32;99436.22;;;2.93;88.41
33845;BME280;20145;43.118;25.694;2023-01-28T11:28:01;99430.13;;;2.84;89.31
33845;BME280;20145;43.118;25.694;2023-01-28T11:30:38;99420.09;;;2.94;88.64
33845;BME280;20145;43.118;25.694;2023-01-28T11:33:18;99434.97;;;3.16;89.07
33845;BME280;20145;43.118;25.694;2023-01-28T11:38:20;99435.03;;;3.21;89.05
33845;BME280;20145;43.118;25.694;2023-01-28T11:40:55;99438.22;;;3.09;89.27
33845;BME280;20145;43.118;25.694;2023-01-28T11:43:26;99434.22;;;3.23;89.56
33845;BME280;20145;43.118;25.694;2023-01-28T12:02:26;99439.31;;;3.73;88.31
33845;BME280;20145;43.118;25.694;2023-01-28T12:05:07;99433.94;;;3.55;89.13
33845;BME280;20145;43.118;25.694;2023-01-28T12:24:07;99431.66;;;3.72;90.37
33845;BME280;20145;43.118;25.694;2023-01-28T12:45:17;99434.59;;;3.98;87.97
33845;BME280;20145;43.118;25.694;2023-01-28T12:47:54;99442.03;;;3.83;86.89
33845;BME280;20145;43.118;25.694;2023-01-28T12:50:27;99452.50;;;3.48;86.70
33845;BME280;20145;43.118;25.694;2023-01-28T12:53:00;99449.81;;;3.39;87.54
33845;BME280;20145;43.118;25.694;2023-01-28T12:55:41;99454.72;;;3.28;88.48
33845;BME280;20145;43.118;25.694;2023-01-28T12:58:17;99450.41;;;3.25;88.04
33845;BME280;20145;43.118;25.694;2023-01-28T13:00:49;99457.00;;;3.14;89.32
33845;BME280;20145;43.118;25.694;2023-01-28T13:03:25;99452.03;;;3.20;90.46
33845;BME280;20145;43.118;25.694;2023-01-28T13:05:58;99457.81;;;3.11;90.16
33845;BME280;20145;43.118;25.694;2023-01-28T13:08:27;99461.31;;;3.18;89.79
33845;BME280;20145;43.118;25.694;2023-01-28T13:10:54;99461.16;;;3.09;91.04
33845;BME280;20145;43.118;25.694;2023-01-28T13:15:56;99469.72;;;3.11;91.48
33845;BME280;20145;43.118;25.694;2023-01-28T13:18:42;99464.41;;;3.00;91.15
33845;BME280;20145;43.118;25.694;2023-01-28T13:24:03;99473.66;;;2.95;91.58
33845;BME280;20145;43.118;25.694;2023-01-28T13:26:43;99471.25;;;3.04;91.74
33845;BME280;20145;43.118;25.694;2023-01-28T13:31:58;99482.72;;;3.26;91.34
33845;BME280;20145;43.118;25.694;2023-01-28T13:34:36;99478.66;;;3.36;90.64
33845;BME280;20145;43.118;25.694;2023-01-28T13:40:28;99486.47;;;3.45;91.46
33845;BME280;20145;43.118;25.694;2023-01-28T13:43:03;99481.47;;;3.50;90.95
33845;BME280;20145;43.118;25.694;2023-01-28T13:45:30;99478.09;;;3.52;91.51
33845;BME280;20145;43.118;25.694;2023-01-28T13:48:12;99489.22;;;3.56;90.93
33845;BME280;20145;43.118;25.694;2023-01-28T13:50:41;99487.50;;;3.55;90.73
33845;BME280;20145;43.118;25.694;2023-01-28T13:55:58;99502.72;;;3.52;90.92
33845;BME280;20145;43.118;25.694;2023-01-28T14:01:21;99501.47;;;3.28;92.43
33845;BME280;20145;43.118;25.694;2023-01-28T14:07:07;99495.66;;;3.37;92.16
33845;BME280;20145;43.118;25.694;2023-01-28T14:17:54;99495.31;;;3.17;92.06
33845;BME280;20145;43.118;25.694;2023-01-28T14:20:31;99492.75;;;3.19;92.27
33845;BME280;20145;43.118;25.694;2023-01-28T14:23:02;99499.06;;;3.38;91.31
33845;BME280;20145;43.118;25.694;2023-01-28T14:25:44;99498.38;;;3.46;91.42
33845;BME280;20145;43.118;25.694;2023-01-28T14:28:26;99505.31;;;3.53;91.90
33845;BME280;20145;43.118;25.694;2023-01-28T14:31:01;99500.25;;;3.56;91.55
33845;BME280;20145;43.118;25.694;2023-01-28T14:33:30;99506.16;;;3.54;91.28
33845;BME280;20145;43.118;25.694;2023-01-28T14:35:57;99505.38;;;3.56;90.99
33845;BME280;20145;43.118;25.694;2023-01-28T14:38:23;99506.28;;;3.60;91.15
33845;BME280;20145;43.118;25.694;2023-01-28T14:40:52;99496.84;;;3.56;90.52
33845;BME280;20145;43.118;25.694;2023-01-28T14:43:24;99507.16;;;3.61;90.33
33845;BME280;20145;43.118;25.694;2023-01-28T14:57:32;99516.59;;;3.21;89.66
33845;BME280;20145;43.118;25.694;2023-01-28T15:00:02;99518.03;;;3.06;89.84
33845;BME280;20145;43.118;25.694;2023-01-28T15:02:32;99520.19;;;2.86;90.80
33845;BME280;20145;43.118;25.694;2023-01-28T15:05:09;99511.97;;;2.60;91.47
33845;BME280;20145;43.118;25.694;2023-01-28T15:07:35;99519.25;;;2.43;92.32
33845;BME280;20145;43.118;25.694;2023-01-28T15:10:10;99524.63;;;2.56;92.64
33845;BME280;20145;43.118;25.694;2023-01-28T15:12:40;99516.31;;;2.64;93.57
33845;BME280;20145;43.118;25.694;2023-01-28T15:15:29;99526.44;;;2.61;93.70
33845;BME280;20145;43.118;25.694;2023-01-28T15:18:00;99524.75;;;2.62;93.21
33845;BME280;20145;43.118;25.694;2023-01-28T15:20:27;99532.22;;;2.54;94.06
33845;BME280;20145;43.118;25.694;2023-01-28T15:22:52;99541.13;;;2.35;94.91
33845;BME280;20145;43.118;25.694;2023-01-28T15:25:21;99542.94;;;2.41;95.67
33845;BME280;20145;43.118;25.694;2023-01-28T15:27:50;99534.16;;;2.27;96.13
33845;BME280;20145;43.118;25.694;2023-01-28T15:30:19;99536.94;;;2.37;96.58
33845;BME280;20145;43.118;25.694;2023-01-28T15:32:45;99541.97;;;2.34;96.39
33845;BME280;20145;43.118;25.694;2023-01-28T15:35:12;99538.16;;;2.53;95.19
33845;BME280;20145;43.118;25.694;2023-01-28T15:37:40;99538.56;;;2.72;95.46
33845;BME280;20145;43.118;25.694;2023-01-28T15:40:17;99543.66;;;2.72;95.14